sensor_id;sensor_type;location;lat;lon;timestamp;P1;durP1;ratioP1;P2;durP2;ratioP2
8187;SDS011;4135;49.184;9.722;2023-04-01T00:01:47;5.32;;;1.23;;
8187;SDS011;4135;49.184;9.722;2023-04-01T00:04:16;3.08;;;1.00;;
8187;SDS011;4135;49.184;9.722;2023-04-01T00:06:46;5.82;;;1.20;;
8187;SDS011;4135;49.184;9.722;2023-04-01T00:09:16;1.85;;;0.55;;
8187;SDS011;4135;49.184;9.722;2023-04-01T00:11:46;3.30;;;0.68;;
8187;SDS011;4135;49.184;9.722;2023-04-01T00:14:15;6.13;;;0.73;;
8187;SDS011;4135;49.184;9.722;2023-04-01T00:16:45;4.78;;;0.88;;
8187;SDS011;4135;49.184;9.722;2023-04-01T00:19:14;2.60;;;0.40;;
8187;SDS011;4135;49.184;9.722;2023-04-01T00:21:44;4.00;;;0.80;;
8187;SDS011;4135;49.184;9.722;2023-04-01T00:24:14;3.67;;;0.95;;
8187;SDS011;4135;49.184;9.722;2023-04-01T00:26:43;2.85;;;0.82;;
8187;SDS011;4135;49.184;9.722;2023-04-01T00:29:13;2.45;;;0.52;;
8187;SDS011;4135;49.184;9.722;2023-04-01T00:31:43;1.70;;;0.50;;
8187;SDS011;4135;49.184;9.722;2023-04-01T00:34:12;2.80;;;0.55;;
8187;SDS011;4135;49.184;9.722;2023-04-01T00:36:42;2.33;;;0.55;;
8187;SDS011;4135;49.184;9.722;2023-04-01T00:39:11;1.25;;;0.60;;
8187;SDS011;4135;49.184;9.722;2023-04-01T00:41:41;1.30;;;0.60;;
8187;SDS011;4135;49.184;9.722;2023-04-01T00:44:21;1.88;;;0.73;;
8187;SDS011;4135;49.184;9.722;2023-04-01T00:46:52;3.40;;;0.90;;
8187;SDS011;4135;49.184;9.722;2023-04-01T00:49:24;1.25;;;0.40;;
8187;SDS011;4135;49.184;9.722;2023-04-01T00:51:57;1.65;;;0.30;;
8187;SDS011;4135;49.184;9.722;2023-04-01T00:54:30;3.88;;;0.55;;
8187;SDS011;4135;49.184;9.722;2023-04-01T00:57:12;1.90;;;0.40;;
8187;SDS011;4135;49.184;9.722;2023-04-01T00:59:48;2.30;;;0.68;;
8187;SDS011;4135;49.184;9.722;2023-04-01T01:02:21;4.47;;;0.55;;
8187;SDS011;4135;49.184;9.722;2023-04-01T01:04:51;1.48;;;0.40;;
8187;SDS011;4135;49.184;9.722;2023-04-01T01:07:33;3.80;;;0.57;;
8187;SDS011;4135;49.184;9.722;2023-04-01T01:10:12;3.67;;;0.63;;
8187;SDS011;4135;49.184;9.722;2023-04-01T01:15:41;2.13;;;0.50;;
8187;SDS011;4135;49.184;9.722;2023-04-01T01:18:21;2.13;;;0.82;;
8187;SDS011;4135;49.184;9.722;2023-04-01T01:21:26;2.00;;;0.55;;
8187;SDS011;4135;49.184;9.722;2023-04-01T01:27:00;1.27;;;0.45;;
8187;SDS011;4135;49.184;9.722;2023-04-01T01:29:40;1.85;;;0.60;;
8187;SDS011;4135;49.184;9.722;2023-04-01T01:38:04;1.40;;;0.52;;
8187;SDS011;4135;49.184;9.722;2023-04-01T01:40:37;1.58;;;0.50;;
8187;SDS011;4135;49.184;9.722;2023-04-01T01:43:11;1.95;;;0.55;;
8187;SDS011;4135;49.184;9.722;2023-04-01T01:45:46;1.10;;;0.40;;
8187;SDS011;4135;49.184;9.722;2023-04-01T01:48:19;0.50;;;0.28;;
8187;SDS011;4135;49.184;9.722;2023-04-01T01:50:49;1.55;;;0.22;;
8187;SDS011;4135;49.184;9.722;2023-04-01T01:53:19;2.55;;;0.60;;
8187;SDS011;4135;49.184;9.722;2023-04-01T01:55:49;1.58;;;0.30;;
8187;SDS011;4135;49.184;9.722;2023-04-01T01:58:27;0.70;;;0.30;;
8187;SDS011;4135;49.184;9.722;2023-04-01T02:01:02;0.73;;;0.20;;
8187;SDS011;4135;49.184;9.722;2023-04-01T02:03:35;0.75;;;0.20;;
8187;SDS011;4135;49.184;9.722;2023-04-01T02:06:07;3.97;;;0.20;;
8187;SDS011;4135;49.184;9.722;2023-04-01T02:08:44;0.73;;;0.10;;
8187;SDS011;4135;49.184;9.722;2023-04-01T02:11:18;0.70;;;0.28;;
8187;SDS011;4135;49.184;9.722;2023-04-01T02:13:55;1.50;;;0.45;;
8187;SDS011;4135;49.184;9.722;2023-04-01T02:16:34;1.23;;;0.30;;
8187;SDS011;4135;49.184;9.722;2023-04-01T02:19:09;1.05;;;0.40;;
8187;SDS011;4135;49.184;9.722;2023-04-01T02:21:40;0.77;;;0.15;;
8187;SDS011;4135;49.184;9.722;2023-04-01T02:24:12;1.90;;;0.10;;
8187;SDS011;4135;49.184;9.722;2023-04-01T02:26:44;3.92;;;0.55;;
8187;SDS011;4135;49.184;9.722;2023-04-01T02:29:14;1.30;;;0.17;;
8187;SDS011;4135;49.184;9.722;2023-04-01T02:31:45;0.80;;;0.28;;
8187;SDS011;4135;49.184;9.722;2023-04-01T02:34:15;2.80;;;0.52;;
8187;SDS011;4135;49.184;9.722;2023-04-01T02:36:46;0.57;;;0.43;;
8187;SDS011;4135;49.184;9.722;2023-04-01T02:39:17;0.80;;;0.38;;
8187;SDS011;4135;49.184;9.722;2023-04-01T02:41:47;0.38;;;0.10;;
8187;SDS011;4135;49.184;9.722;2023-04-01T02:44:16;1.60;;;0.30;;
8187;SDS011;4135;49.184;9.722;2023-04-01T02:46:46;0.75;;;0.25;;
8187;SDS011;4135;49.184;9.722;2023-04-01T02:49:15;1.75;;;0.20;;
8187;SDS011;4135;49.184;9.722;2023-04-01T02:51:45;0.85;;;0.13;;
8187;SDS011;4135;49.184;9.722;2023-04-01T02:54:14;1.50;;;0.30;;
8187;SDS011;4135;49.184;9.722;2023-04-01T02:56:44;4.50;;;0.60;;
8187;SDS011;4135;49.184;9.722;2023-04-01T02:59:14;1.38;;;0.32;;
8187;SDS011;4135;49.184;9.722;2023-04-01T03:01:43;4.20;;;0.68;;
8187;SDS011;4135;49.184;9.722;2023-04-01T03:04:13;1.65;;;0.30;;
8187;SDS011;4135;49.184;9.722;2023-04-01T03:06:43;2.60;;;0.35;;
8187;SDS011;4135;49.184;9.722;2023-04-01T03:09:12;2.38;;;0.22;;
8187;SDS011;4135;49.184;9.722;2023-04-01T03:11:43;1.45;;;0.40;;
8187;SDS011;4135;49.184;9.722;2023-04-01T03:14:12;0.90;;;0.32;;
8187;SDS011;4135;49.184;9.722;2023-04-01T03:16:42;0.52;;;0.10;;
8187;SDS011;4135;49.184;9.722;2023-04-01T03:19:11;1.23;;;0.38;;
8187;SDS011;4135;49.184;9.722;2023-04-01T03:21:41;1.40;;;0.40;;
8187;SDS011;4135;49.184;9.722;2023-04-01T03:24:10;2.08;;;0.35;;
8187;SDS011;4135;49.184;9.722;2023-04-01T03:26:40;2.63;;;0.70;;
8187;SDS011;4135;49.184;9.722;2023-04-01T03:29:09;0.88;;;0.25;;
8187;SDS011;4135;49.184;9.722;2023-04-01T03:31:39;1.30;;;0.40;;
8187;SDS011;4135;49.184;9.722;2023-04-01T03:34:08;2.30;;;0.40;;
8187;SDS011;4135;49.184;9.722;2023-04-01T03:36:38;0.47;;;0.10;;
8187;SDS011;4135;49.184;9.722;2023-04-01T03:39:07;1.95;;;0.30;;
8187;SDS011;4135;49.184;9.722;2023-04-01T03:41:37;1.17;;;0.32;;
8187;SDS011;4135;49.184;9.722;2023-04-01T03:44:07;4.90;;;0.60;;
8187;SDS011;4135;49.184;9.722;2023-04-01T03:46:36;1.50;;;0.20;;
8187;SDS011;4135;49.184;9.722;2023-04-01T03:49:07;1.13;;;0.30;;
8187;SDS011;4135;49.184;9.722;2023-04-01T03:51:41;0.63;;;0.28;;
8187;SDS011;4135;49.184;9.722;2023-04-01T03:54:11;0.75;;;0.20;;
8187;SDS011;4135;49.184;9.722;2023-04-01T03:56:41;2.28;;;0.35;;
8187;SDS011;4135;49.184;9.722;2023-04-01T03:59:10;2.67;;;0.60;;
8187;SDS011;4135;49.184;9.722;2023-04-01T04:01:40;0.98;;;0.20;;
8187;SDS011;4135;49.184;9.722;2023-04-01T04:04:11;0.50;;;0.10;;
8187;SDS011;4135;49.184;9.722;2023-04-01T04:06:42;0.70;;;0.10;;
8187;SDS011;4135;49.184;9.722;2023-04-01T04:09:11;0.98;;;0.10;;
8187;SDS011;4135;49.184;9.722;2023-04-01T04:11:41;1.15;;;0.40;;
8187;SDS011;4135;49.184;9.722;2023-04-01T04:14:10;1.38;;;0.17;;
8187;SDS011;4135;49.184;9.722;2023-04-01T04:16:40;2.20;;;0.32;;
8187;SDS011;4135;49.184;9.722;2023-04-01T04:19:09;1.38;;;0.30;;
8187;SDS011;4135;49.184;9.722;2023-04-01T04:21:39;1.08;;;0.50;;
8187;SDS011;4135;49.184;9.722;2023-04-01T04:24:10;1.35;;;0.20;;
8187;SDS011;4135;49.184;9.722;2023-04-01T04:26:39;3.17;;;0.40;;
8187;SDS011;4135;49.184;9.722;2023-04-01T04:29:09;1.40;;;0.40;;
8187;SDS011;4135;49.184;9.722;2023-04-01T04:31:38;1.27;;;0.45;;
8187;SDS011;4135;49.184;9.722;2023-04-01T04:34:08;0.52;;;0.25;;
8187;SDS011;4135;49.184;9.722;2023-04-01T04:36:38;0.20;;;0.10;;
8187;SDS011;4135;49.184;9.722;2023-04-01T04:39:07;1.92;;;0.50;;
8187;SDS011;4135;49.184;9.722;2023-04-01T04:41:37;1.00;;;0.35;;
8187;SDS011;4135;49.184;9.722;2023-04-01T04:44:06;4.30;;;0.30;;
8187;SDS011;4135;49.184;9.722;2023-04-01T04:46:36;2.08;;;0.20;;
8187;SDS011;4135;49.184;9.722;2023-04-01T04:49:08;2.38;;;0.35;;
8187;SDS011;4135;49.184;9.722;2023-04-01T04:51:38;0.45;;;0.10;;
8187;SDS011;4135;49.184;9.722;2023-04-01T04:54:08;1.58;;;0.30;;
8187;SDS011;4135;49.184;9.722;2023-04-01T04:56:37;0.98;;;0.17;;
8187;SDS011;4135;49.184;9.722;2023-04-01T04:59:07;0.93;;;0.20;;
8187;SDS011;4135;49.184;9.722;2023-04-01T05:01:36;0.47;;;0.20;;
8187;SDS011;4135;49.184;9.722;2023-04-01T05:04:06;0.80;;;0.10;;
8187;SDS011;4135;49.184;9.722;2023-04-01T05:06:35;0.30;;;0.20;;
8187;SDS011;4135;49.184;9.722;2023-04-01T05:09:05;1.48;;;0.52;;
8187;SDS011;4135;49.184;9.722;2023-04-01T05:11:34;0.52;;;0.20;;
8187;SDS011;4135;49.184;9.722;2023-04-01T05:14:04;1.10;;;0.30;;
8187;SDS011;4135;49.184;9.722;2023-04-01T05:16:33;0.43;;;0.08;;
8187;SDS011;4135;49.184;9.722;2023-04-01T05:19:03;3.00;;;0.40;;
8187;SDS011;4135;49.184;9.722;2023-04-01T05:21:32;1.40;;;0.50;;
8187;SDS011;4135;49.184;9.722;2023-04-01T05:24:02;0.85;;;0.20;;
8187;SDS011;4135;49.184;9.722;2023-04-01T05:26:31;1.00;;;0.25;;
8187;SDS011;4135;49.184;9.722;2023-04-01T05:29:01;3.83;;;0.40;;
8187;SDS011;4135;49.184;9.722;2023-04-01T05:31:31;0.35;;;0.28;;
8187;SDS011;4135;49.184;9.722;2023-04-01T05:34:01;2.70;;;0.30;;
8187;SDS011;4135;49.184;9.722;2023-04-01T05:36:30;2.22;;;0.22;;
8187;SDS011;4135;49.184;9.722;2023-04-01T05:39:00;1.35;;;0.30;;
8187;SDS011;4135;49.184;9.722;2023-04-01T05:41:29;1.02;;;0.22;;
8187;SDS011;4135;49.184;9.722;2023-04-01T05:43:59;2.58;;;0.43;;
8187;SDS011;4135;49.184;9.722;2023-04-01T05:46:28;0.13;;;0.00;;
8187;SDS011;4135;49.184;9.722;2023-04-01T05:48:58;0.65;;;0.30;;
8187;SDS011;4135;49.184;9.722;2023-04-01T05:51:27;1.42;;;0.22;;
8187;SDS011;4135;49.184;9.722;2023-04-01T05:53:57;0.55;;;0.15;;
8187;SDS011;4135;49.184;9.722;2023-04-01T05:56:26;0.38;;;0.15;;
8187;SDS011;4135;49.184;9.722;2023-04-01T05:58:56;0.40;;;0.20;;
8187;SDS011;4135;49.184;9.722;2023-04-01T06:01:25;0.40;;;0.05;;
8187;SDS011;4135;49.184;9.722;2023-04-01T06:03:55;1.50;;;0.10;;
8187;SDS011;4135;49.184;9.722;2023-04-01T06:06:26;0.20;;;0.00;;
8187;SDS011;4135;49.184;9.722;2023-04-01T06:08:58;0.95;;;0.10;;
8187;SDS011;4135;49.184;9.722;2023-04-01T06:14:43;1.38;;;0.30;;
8187;SDS011;4135;49.184;9.722;2023-04-01T06:26:15;5.35;;;0.30;;
8187;SDS011;4135;49.184;9.722;2023-04-01T06:42:49;0.30;;;0.20;;
8187;SDS011;4135;49.184;9.722;2023-04-01T06:45:40;2.38;;;0.30;;
8187;SDS011;4135;49.184;9.722;2023-04-01T06:51:14;0.70;;;0.20;;
8187;SDS011;4135;49.184;9.722;2023-04-01T06:54:01;0.32;;;0.03;;
8187;SDS011;4135;49.184;9.722;2023-04-01T06:56:35;1.25;;;0.10;;
8187;SDS011;4135;49.184;9.722;2023-04-01T06:59:15;2.17;;;0.20;;
8187;SDS011;4135;49.184;9.722;2023-04-01T07:01:52;2.55;;;0.25;;
8187;SDS011;4135;49.184;9.722;2023-04-01T07:07:01;1.70;;;0.40;;
8187;SDS011;4135;49.184;9.722;2023-04-01T07:09:34;1.08;;;0.38;;
8187;SDS011;4135;49.184;9.722;2023-04-01T07:12:15;3.88;;;0.52;;
8187;SDS011;4135;49.184;9.722;2023-04-01T07:14:53;3.40;;;0.73;;
8187;SDS011;4135;49.184;9.722;2023-04-01T07:17:25;1.35;;;0.40;;
8187;SDS011;4135;49.184;9.722;2023-04-01T07:20:02;2.65;;;0.30;;
8187;SDS011;4135;49.184;9.722;2023-04-01T07:22:41;1.45;;;0.35;;
8187;SDS011;4135;49.184;9.722;2023-04-01T07:25:15;2.08;;;0.50;;
8187;SDS011;4135;49.184;9.722;2023-04-01T07:28:02;1.15;;;0.40;;
8187;SDS011;4135;49.184;9.722;2023-04-01T07:30:40;2.67;;;0.60;;
8187;SDS011;4135;49.184;9.722;2023-04-01T07:33:43;1.30;;;0.30;;
8187;SDS011;4135;49.184;9.722;2023-04-01T07:36:48;3.78;;;0.55;;
8187;SDS011;4135;49.184;9.722;2023-04-01T07:43:00;3.85;;;0.43;;
8187;SDS011;4135;49.184;9.722;2023-04-01T07:48:09;5.78;;;0.70;;
8187;SDS011;4135;49.184;9.722;2023-04-01T07:50:51;12.52;;;2.17;;
8187;SDS011;4135;49.184;9.722;2023-04-01T07:53:32;9.05;;;1.70;;
8187;SDS011;4135;49.184;9.722;2023-04-01T07:56:38;6.72;;;1.63;;
8187;SDS011;4135;49.184;9.722;2023-04-01T08:02:27;6.72;;;1.20;;
8187;SDS011;4135;49.184;9.722;2023-04-01T08:05:13;6.65;;;0.70;;
8187;SDS011;4135;49.184;9.722;2023-04-01T08:07:47;4.13;;;1.02;;
8187;SDS011;4135;49.184;9.722;2023-04-01T08:10:33;8.93;;;1.10;;
8187;SDS011;4135;49.184;9.722;2023-04-01T08:19:25;4.88;;;0.90;;
8187;SDS011;4135;49.184;9.722;2023-04-01T08:22:08;1.70;;;0.47;;
8187;SDS011;4135;49.184;9.722;2023-04-01T08:24:43;3.55;;;0.57;;
8187;SDS011;4135;49.184;9.722;2023-04-01T08:27:21;8.30;;;0.90;;
8187;SDS011;4135;49.184;9.722;2023-04-01T08:30:19;3.75;;;0.82;;
8187;SDS011;4135;49.184;9.722;2023-04-01T08:32:56;3.33;;;0.93;;
8187;SDS011;4135;49.184;9.722;2023-04-01T08:35:46;3.55;;;0.60;;
8187;SDS011;4135;49.184;9.722;2023-04-01T08:38:32;3.33;;;0.40;;
8187;SDS011;4135;49.184;9.722;2023-04-01T08:41:28;4.10;;;1.17;;
8187;SDS011;4135;49.184;9.722;2023-04-01T08:44:19;3.92;;;1.27;;
8187;SDS011;4135;49.184;9.722;2023-04-01T08:49:57;12.60;;;3.58;;
8187;SDS011;4135;49.184;9.722;2023-04-01T09:03:58;10.88;;;2.60;;
8187;SDS011;4135;49.184;9.722;2023-04-01T09:09:56;10.23;;;2.83;;
8187;SDS011;4135;49.184;9.722;2023-04-01T09:21:00;6.32;;;2.35;;
8187;SDS011;4135;49.184;9.722;2023-04-01T09:23:53;3.85;;;2.15;;
8187;SDS011;4135;49.184;9.722;2023-04-01T09:29:49;4.38;;;1.92;;
8187;SDS011;4135;49.184;9.722;2023-04-01T09:35:50;2.13;;;1.52;;
8187;SDS011;4135;49.184;9.722;2023-04-01T09:38:52;4.05;;;1.77;;
8187;SDS011;4135;49.184;9.722;2023-04-01T09:41:32;10.63;;;2.13;;
8187;SDS011;4135;49.184;9.722;2023-04-01T09:55:18;4.22;;;1.15;;
8187;SDS011;4135;49.184;9.722;2023-04-01T10:00:55;2.50;;;0.90;;
8187;SDS011;4135;49.184;9.722;2023-04-01T10:15:25;3.90;;;1.17;;
8187;SDS011;4135;49.184;9.722;2023-04-01T10:27:26;7.40;;;1.00;;
8187;SDS011;4135;49.184;9.722;2023-04-01T10:33:12;4.20;;;1.23;;
8187;SDS011;4135;49.184;9.722;2023-04-01T10:36:11;1.13;;;0.52;;
8187;SDS011;4135;49.184;9.722;2023-04-01T10:45:08;4.43;;;0.82;;
8187;SDS011;4135;49.184;9.722;2023-04-01T10:48:09;3.55;;;1.02;;
8187;SDS011;4135;49.184;9.722;2023-04-01T11:00:48;4.90;;;0.70;;
8187;SDS011;4135;49.184;9.722;2023-04-01T11:03:39;4.60;;;0.80;;
8187;SDS011;4135;49.184;9.722;2023-04-01T11:09:29;2.60;;;1.00;;
8187;SDS011;4135;49.184;9.722;2023-04-01T11:26:12;6.88;;;2.13;;
8187;SDS011;4135;49.184;9.722;2023-04-01T11:28:53;5.22;;;1.35;;
8187;SDS011;4135;49.184;9.722;2023-04-01T11:31:44;2.55;;;1.17;;
8187;SDS011;4135;49.184;9.722;2023-04-01T11:37:34;4.68;;;1.42;;
8187;SDS011;4135;49.184;9.722;2023-04-01T11:40:34;3.72;;;1.15;;
8187;SDS011;4135;49.184;9.722;2023-04-01T11:43:11;4.57;;;1.35;;
8187;SDS011;4135;49.184;9.722;2023-04-01T11:45:56;3.97;;;1.45;;
8187;SDS011;4135;49.184;9.722;2023-04-01T11:51:29;2.65;;;0.65;;
8187;SDS011;4135;49.184;9.722;2023-04-01T11:54:39;0.98;;;0.73;;
8187;SDS011;4135;49.184;9.722;2023-04-01T12:00:33;1.83;;;0.90;;
8187;SDS011;4135;49.184;9.722;2023-04-01T12:15:16;2.58;;;0.68;;
8187;SDS011;4135;49.184;9.722;2023-04-01T12:18:03;2.85;;;0.73;;
8187;SDS011;4135;49.184;9.722;2023-04-01T12:21:08;3.95;;;0.82;;
8187;SDS011;4135;49.184;9.722;2023-04-01T12:23:55;5.38;;;1.13;;
8187;SDS011;4135;49.184;9.722;2023-04-01T12:26:59;2.80;;;0.98;;
8187;SDS011;4135;49.184;9.722;2023-04-01T12:29:54;3.80;;;0.57;;
8187;SDS011;4135;49.184;9.722;2023-04-01T12:44:31;3.40;;;0.73;;
8187;SDS011;4135;49.184;9.722;2023-04-01T12:47:26;6.38;;;0.95;;
8187;SDS011;4135;49.184;9.722;2023-04-01T12:55:39;6.50;;;1.00;;
8187;SDS011;4135;49.184;9.722;2023-04-01T12:58:15;4.28;;;0.93;;
8187;SDS011;4135;49.184;9.722;2023-04-01T13:18:02;12.95;;;3.47;;
8187;SDS011;4135;49.184;9.722;2023-04-01T13:20:57;9.38;;;2.28;;
8187;SDS011;4135;49.184;9.722;2023-04-01T13:23:42;5.35;;;1.80;;
8187;SDS011;4135;49.184;9.722;2023-04-01T13:26:36;12.00;;;2.95;;
8187;SDS011;4135;49.184;9.722;2023-04-01T13:29:20;7.65;;;2.25;;
8187;SDS011;4135;49.184;9.722;2023-04-01T13:43:15;8.77;;;2.08;;
8187;SDS011;4135;49.184;9.722;2023-04-01T14:00:27;1.98;;;0.98;;
8187;SDS011;4135;49.184;9.722;2023-04-01T14:03:14;3.50;;;0.90;;
8187;SDS011;4135;49.184;9.722;2023-04-01T14:06:05;3.90;;;0.95;;
8187;SDS011;4135;49.184;9.722;2023-04-01T14:09:06;2.75;;;0.95;;
8187;SDS011;4135;49.184;9.722;2023-04-01T14:12:04;3.15;;;0.70;;
8187;SDS011;4135;49.184;9.722;2023-04-01T14:14:52;3.13;;;0.90;;
8187;SDS011;4135;49.184;9.722;2023-04-01T14:17:37;4.05;;;0.50;;
8187;SDS011;4135;49.184;9.722;2023-04-01T14:23:13;2.00;;;0.50;;
8187;SDS011;4135;49.184;9.722;2023-04-01T14:25:55;3.13;;;0.50;;
8187;SDS011;4135;49.184;9.722;2023-04-01T14:40:05;1.13;;;0.30;;
8187;SDS011;4135;49.184;9.722;2023-04-01T14:45:35;1.75;;;0.52;;
8187;SDS011;4135;49.184;9.722;2023-04-01T14:48:28;4.22;;;0.45;;
8187;SDS011;4135;49.184;9.722;2023-04-01T14:51:23;4.13;;;0.75;;
8187;SDS011;4135;49.184;9.722;2023-04-01T14:54:08;5.03;;;0.47;;
8187;SDS011;4135;49.184;9.722;2023-04-01T14:57:01;3.92;;;0.70;;
8187;SDS011;4135;49.184;9.722;2023-04-01T15:02:59;3.63;;;0.70;;
8187;SDS011;4135;49.184;9.722;2023-04-01T15:08:59;9.50;;;0.80;;
8187;SDS011;4135;49.184;9.722;2023-04-01T15:20:46;4.57;;;0.70;;
8187;SDS011;4135;49.184;9.722;2023-04-01T15:23:21;5.25;;;0.70;;
8187;SDS011;4135;49.184;9.722;2023-04-01T15:26:09;7.95;;;1.05;;
8187;SDS011;4135;49.184;9.722;2023-04-01T15:31:54;1.80;;;0.38;;
8187;SDS011;4135;49.184;9.722;2023-04-01T15:34:32;3.80;;;0.82;;
8187;SDS011;4135;49.184;9.722;2023-04-01T15:37:29;2.83;;;0.45;;
8187;SDS011;4135;49.184;9.722;2023-04-01T16:09:59;4.95;;;0.85;;
8187;SDS011;4135;49.184;9.722;2023-04-01T16:21:48;0.82;;;0.30;;
8187;SDS011;4135;49.184;9.722;2023-04-01T16:38:22;11.40;;;1.02;;
8187;SDS011;4135;49.184;9.722;2023-04-01T16:41:07;4.47;;;0.63;;
8187;SDS011;4135;49.184;9.722;2023-04-01T16:44:26;5.63;;;0.88;;
8187;SDS011;4135;49.184;9.722;2023-04-01T16:46:52;5.07;;;1.08;;
8187;SDS011;4135;49.184;9.722;2023-04-01T16:49:37;7.38;;;1.30;;
8187;SDS011;4135;49.184;9.722;2023-04-01T17:05:42;8.63;;;1.60;;
8187;SDS011;4135;49.184;9.722;2023-04-01T17:08:24;4.45;;;1.13;;
8187;SDS011;4135;49.184;9.722;2023-04-01T17:14:22;6.45;;;1.40;;
8187;SDS011;4135;49.184;9.722;2023-04-01T17:22:55;6.68;;;1.52;;
8187;SDS011;4135;49.184;9.722;2023-04-01T17:29:28;4.57;;;1.20;;
8187;SDS011;4135;49.184;9.722;2023-04-01T17:45:57;7.53;;;0.68;;
8187;SDS011;4135;49.184;9.722;2023-04-01T17:48:38;1.83;;;0.80;;
8187;SDS011;4135;49.184;9.722;2023-04-01T17:54:12;10.20;;;0.82;;
8187;SDS011;4135;49.184;9.722;2023-04-01T18:10:47;5.85;;;0.60;;
8187;SDS011;4135;49.184;9.722;2023-04-01T18:16:58;2.25;;;0.35;;
8187;SDS011;4135;49.184;9.722;2023-04-01T18:22:59;2.65;;;0.52;;
8187;SDS011;4135;49.184;9.722;2023-04-01T18:25:50;2.70;;;0.30;;
8187;SDS011;4135;49.184;9.722;2023-04-01T18:28:31;2.38;;;0.50;;
8187;SDS011;4135;49.184;9.722;2023-04-01T18:33:53;3.88;;;1.15;;
8187;SDS011;4135;49.184;9.722;2023-04-01T18:39:23;7.20;;;0.60;;
8187;SDS011;4135;49.184;9.722;2023-04-01T18:42:05;1.92;;;0.52;;
8187;SDS011;4135;49.184;9.722;2023-04-01T18:44:57;2.65;;;0.70;;
8187;SDS011;4135;49.184;9.722;2023-04-01T18:50:50;5.38;;;0.75;;
8187;SDS011;4135;49.184;9.722;2023-04-01T18:53:45;4.95;;;0.65;;
8187;SDS011;4135;49.184;9.722;2023-04-01T18:56:26;2.78;;;0.88;;
8187;SDS011;4135;49.184;9.722;2023-04-01T18:59:26;8.23;;;1.25;;
8187;SDS011;4135;49.184;9.722;2023-04-01T19:05:02;10.48;;;1.85;;
8187;SDS011;4135;49.184;9.722;2023-04-01T19:07:39;7.03;;;1.90;;
8187;SDS011;4135;49.184;9.722;2023-04-01T19:13:15;10.25;;;1.80;;
8187;SDS011;4135;49.184;9.722;2023-04-01T19:21:53;11.15;;;2.20;;
8187;SDS011;4135;49.184;9.722;2023-04-01T19:27:34;6.75;;;1.20;;
8187;SDS011;4135;49.184;9.722;2023-04-01T19:33:06;4.57;;;1.48;;
8187;SDS011;4135;49.184;9.722;2023-04-01T19:41:09;4.40;;;0.98;;
8187;SDS011;4135;49.184;9.722;2023-04-01T19:52:39;8.65;;;1.52;;
8187;SDS011;4135;49.184;9.722;2023-04-01T19:55:14;5.35;;;1.48;;
8187;SDS011;4135;49.184;9.722;2023-04-01T19:58:09;2.85;;;0.50;;
8187;SDS011;4135;49.184;9.722;2023-04-01T20:00:57;2.55;;;1.10;;
8187;SDS011;4135;49.184;9.722;2023-04-01T20:03:31;6.45;;;1.15;;
8187;SDS011;4135;49.184;9.722;2023-04-01T20:06:24;2.00;;;1.02;;
8187;SDS011;4135;49.184;9.722;2023-04-01T20:14:34;2.63;;;1.10;;
8187;SDS011;4135;49.184;9.722;2023-04-01T20:17:29;4.00;;;0.73;;
8187;SDS011;4135;49.184;9.722;2023-04-01T20:25:17;5.95;;;1.10;;
8187;SDS011;4135;49.184;9.722;2023-04-01T20:27:55;1.08;;;0.75;;
8187;SDS011;4135;49.184;9.722;2023-04-01T20:47:09;3.45;;;0.82;;
8187;SDS011;4135;49.184;9.722;2023-04-01T20:53:04;1.67;;;0.45;;
8187;SDS011;4135;49.184;9.722;2023-04-01T20:58:42;7.10;;;0.60;;
8187;SDS011;4135;49.184;9.722;2023-04-01T21:07:28;0.95;;;0.30;;
8187;SDS011;4135;49.184;9.722;2023-04-01T21:13:15;2.55;;;0.40;;
8187;SDS011;4135;49.184;9.722;2023-04-01T21:16:10;3.33;;;0.47;;
8187;SDS011;4135;49.184;9.722;2023-04-01T21:24:54;4.35;;;0.63;;
8187;SDS011;4135;49.184;9.722;2023-04-01T21:28:00;5.82;;;0.93;;
8187;SDS011;4135;49.184;9.722;2023-04-01T21:30:52;4.95;;;0.98;;
8187;SDS011;4135;49.184;9.722;2023-04-01T21:39:08;1.85;;;0.55;;
8187;SDS011;4135;49.184;9.722;2023-04-01T21:42:15;6.78;;;1.15;;
8187;SDS011;4135;49.184;9.722;2023-04-01T21:53:09;3.20;;;0.60;;
8187;SDS011;4135;49.184;9.722;2023-04-01T21:58:55;5.13;;;0.70;;
8187;SDS011;4135;49.184;9.722;2023-04-01T22:07:34;3.03;;;0.73;;
8187;SDS011;4135;49.184;9.722;2023-04-01T22:13:13;2.45;;;0.60;;
8187;SDS011;4135;49.184;9.722;2023-04-01T22:15:58;3.38;;;0.75;;
8187;SDS011;4135;49.184;9.722;2023-04-01T22:21:53;3.55;;;0.52;;
8187;SDS011;4135;49.184;9.722;2023-04-01T22:24:37;2.88;;;0.52;;
8187;SDS011;4135;49.184;9.722;2023-04-01T22:27:44;4.03;;;1.00;;
8187;SDS011;4135;49.184;9.722;2023-04-01T22:30:40;2.85;;;0.45;;
8187;SDS011;4135;49.184;9.722;2023-04-01T22:33:32;2.38;;;0.60;;
8187;SDS011;4135;49.184;9.722;2023-04-01T22:36:13;2.75;;;0.65;;
8187;SDS011;4135;49.184;9.722;2023-04-01T22:39:12;1.88;;;0.60;;
8187;SDS011;4135;49.184;9.722;2023-04-01T22:42:07;5.93;;;0.73;;
8187;SDS011;4135;49.184;9.722;2023-04-01T22:56:05;1.45;;;0.55;;
8187;SDS011;4135;49.184;9.722;2023-04-01T22:58:56;4.13;;;0.55;;
8187;SDS011;4135;49.184;9.722;2023-04-01T23:01:30;1.70;;;0.38;;
8187;SDS011;4135;49.184;9.722;2023-04-01T23:04:07;0.68;;;0.28;;
8187;SDS011;4135;49.184;9.722;2023-04-01T23:06:46;0.60;;;0.28;;
8187;SDS011;4135;49.184;9.722;2023-04-01T23:09:23;1.85;;;0.40;;
8187;SDS011;4135;49.184;9.722;2023-04-01T23:12:03;1.45;;;0.40;;
8187;SDS011;4135;49.184;9.722;2023-04-01T23:20:07;0.95;;;0.40;;
8187;SDS011;4135;49.184;9.722;2023-04-01T23:26:02;1.25;;;0.52;;
8187;SDS011;4135;49.184;9.722;2023-04-01T23:29:00;3.20;;;0.63;;
8187;SDS011;4135;49.184;9.722;2023-04-01T23:31:40;3.88;;;0.50;;
8187;SDS011;4135;49.184;9.722;2023-04-01T23:36:42;0.90;;;0.30;;
8187;SDS011;4135;49.184;9.722;2023-04-01T23:45:12;2.25;;;0.52;;
8187;SDS011;4135;49.184;9.722;2023-04-01T23:47:51;1.42;;;0.30;;
8187;SDS011;4135;49.184;9.722;2023-04-01T23:50:24;4.10;;;0.65;;
8187;SDS011;4135;49.184;9.722;2023-04-01T23:52:58;2.55;;;0.30;;
8187;SDS011;4135;49.184;9.722;2023-04-01T23:55:31;1.75;;;0.30;;
